createdAt,value
2022-12-05T00:00:30.786Z,3.70
2022-12-05T00:01:41.162Z,3.73
2022-12-05T00:02:43.510Z,3.74
2022-12-05T00:03:47.209Z,3.75
2022-12-05T00:04:49.532Z,3.79
2022-12-05T00:05:54.454Z,3.77
2022-12-05T00:06:56.776Z,3.75
2022-12-05T00:07:59.144Z,3.78
2022-12-05T00:09:01.951Z,3.75
2022-12-05T00:10:08.412Z,3.78
2022-12-05T00:11:12.913Z,3.77
2022-12-05T00:12:15.522Z,3.74
2022-12-05T00:13:17.927Z,3.77
2022-12-05T00:14:20.154Z,3.77
2022-12-05T00:15:22.444Z,3.79
2022-12-05T00:16:26.881Z,3.80
2022-12-05T00:17:29.218Z,3.79
2022-12-05T00:18:31.547Z,3.78
2022-12-05T00:19:36.494Z,3.77
2022-12-05T00:20:45.544Z,3.74
2022-12-05T00:21:47.746Z,3.73
2022-12-05T00:22:49.970Z,3.76
2022-12-05T00:23:54.538Z,3.77
2022-12-05T00:24:56.758Z,3.76
2022-12-05T00:26:03.444Z,3.75
2022-12-05T00:27:06.508Z,3.77
2022-12-05T00:28:08.790Z,3.77
2022-12-05T00:29:11.341Z,3.75
2022-12-05T00:30:13.804Z,3.73
2022-12-05T00:31:18.368Z,3.72
2022-12-05T00:32:21.126Z,3.72
2022-12-05T00:33:23.420Z,3.75
2022-12-05T00:34:25.759Z,3.74
2022-12-05T00:35:28.073Z,3.77
2022-12-05T00:36:32.816Z,3.77
2022-12-05T00:37:34.972Z,3.81
2022-12-05T00:38:38.946Z,3.82
2022-12-05T00:39:41.259Z,3.81
2022-12-05T00:40:43.615Z,3.79
2022-12-05T00:41:45.864Z,3.78
2022-12-05T00:42:52.282Z,3.79
2022-12-05T00:43:56.402Z,3.82
2022-12-05T00:44:58.522Z,3.82
2022-12-05T00:46:05.478Z,3.81
2022-12-05T00:47:08.866Z,3.81
2022-12-05T00:48:11.377Z,3.81
2022-12-05T00:49:13.844Z,3.82
2022-12-05T00:50:16.121Z,3.83
2022-12-05T00:51:21.284Z,3.82
2022-12-05T00:52:23.484Z,3.81
2022-12-05T00:53:25.914Z,3.79
2022-12-05T00:54:28.767Z,3.83
2022-12-05T00:55:31.006Z,3.85
2022-12-05T00:56:36.479Z,3.84
2022-12-05T00:57:39.243Z,3.84
2022-12-05T00:58:43.294Z,3.83
2022-12-05T00:59:45.763Z,3.86
2022-12-05T01:00:48.472Z,3.84
2022-12-05T01:01:52.563Z,3.84
2022-12-05T01:02:56.077Z,3.89
2022-12-05T01:03:59.863Z,3.91
2022-12-05T01:05:02.232Z,3.89
2022-12-05T01:06:06.381Z,3.88
2022-12-05T01:07:08.904Z,3.91
2022-12-05T01:08:12.662Z,3.88
2022-12-05T01:09:19.157Z,3.84
2022-12-05T01:10:21.541Z,3.85
2022-12-05T01:11:25.799Z,3.78
2022-12-05T01:12:28.408Z,3.82
2022-12-05T01:13:31.569Z,3.76
2022-12-05T01:14:33.777Z,3.77
2022-12-05T01:15:39.184Z,3.75
2022-12-05T01:16:44.964Z,3.75
2022-12-05T01:17:52.175Z,3.81
2022-12-05T01:18:56.659Z,3.81
2022-12-05T01:19:59.188Z,3.81
2022-12-05T01:21:05.710Z,3.79
2022-12-05T01:22:08.148Z,3.78
2022-12-05T01:23:11.392Z,3.76
2022-12-05T01:24:14.339Z,3.77
2022-12-05T01:25:16.674Z,3.77
2022-12-05T01:26:21.281Z,3.78
2022-12-05T01:27:26.080Z,3.80
2022-12-05T01:28:28.410Z,3.71
2022-12-05T01:29:31.147Z,3.84
2022-12-05T01:30:34.014Z,3.82
2022-12-05T01:31:37.870Z,3.79
2022-12-05T01:32:40.676Z,3.75
2022-12-05T01:33:42.883Z,3.75
2022-12-05T01:34:45.165Z,3.80
2022-12-05T01:35:47.466Z,3.77
2022-12-05T01:36:49.883Z,3.73
2022-12-05T01:37:52.365Z,3.71
2022-12-05T01:38:55.635Z,3.71
2022-12-05T01:39:58.409Z,3.67
2022-12-05T01:41:03.724Z,3.69
2022-12-05T01:42:06.536Z,3.69
2022-12-05T01:43:16.974Z,3.72
2022-12-05T01:44:19.122Z,3.72
2022-12-05T01:45:47.528Z,3.73
2022-12-05T01:46:51.916Z,3.71
2022-12-05T01:47:54.773Z,3.64
2022-12-05T01:49:09.181Z,3.66
2022-12-05T01:50:13.247Z,3.72
2022-12-05T01:51:15.673Z,3.67
2022-12-05T01:52:23.073Z,3.68
2022-12-05T01:53:26.472Z,3.69
2022-12-05T01:54:29.470Z,3.71
2022-12-05T01:55:34.321Z,3.71
2022-12-05T01:56:37.129Z,3.72
2022-12-05T01:57:40.443Z,3.74
2022-12-05T01:58:45.017Z,3.72
2022-12-05T01:59:52.020Z,3.79
2022-12-05T02:00:54.412Z,3.75
2022-12-05T02:01:59.208Z,3.75
2022-12-05T02:03:08.269Z,3.75
2022-12-05T02:04:11.235Z,3.73
2022-12-05T02:05:26.005Z,3.70
2022-12-05T02:06:28.944Z,3.69
2022-12-05T02:07:32.381Z,3.70
2022-12-05T02:08:36.464Z,3.73
2022-12-05T02:09:38.731Z,3.73
2022-12-05T02:10:54.328Z,3.73
2022-12-05T02:12:01.134Z,3.76
2022-12-05T02:13:16.350Z,3.73
2022-12-05T02:14:44.597Z,3.73
2022-12-05T02:16:22.292Z,3.74
2022-12-05T02:17:46.346Z,3.78
2022-12-05T02:19:10.349Z,3.77
2022-12-05T02:20:31.129Z,3.81
2022-12-05T02:22:04.562Z,3.75
2022-12-05T02:23:28.655Z,3.78
2022-12-05T02:24:49.935Z,3.79
2022-12-05T02:26:25.169Z,3.78
2022-12-05T02:27:33.022Z,3.79
2022-12-05T02:28:49.283Z,3.78
2022-12-05T02:29:57.095Z,3.76
2022-12-05T02:31:12.593Z,3.77
2022-12-05T02:32:27.320Z,3.82
2022-12-05T02:33:44.625Z,3.83
2022-12-05T02:34:46.909Z,3.85
2022-12-05T02:36:05.175Z,3.86
2022-12-05T02:37:17.101Z,3.87
2022-12-05T02:38:31.778Z,3.82
2022-12-05T02:39:55.015Z,3.81
2022-12-05T02:41:03.419Z,3.82
2022-12-05T02:42:13.557Z,3.78
2022-12-05T02:43:46.018Z,3.80
2022-12-05T02:44:54.672Z,3.80
2022-12-05T02:46:02.929Z,3.82
2022-12-05T02:47:08.384Z,3.81
2022-12-05T02:48:14.541Z,3.79
2022-12-05T02:49:23.419Z,3.77
2022-12-05T02:50:31.963Z,3.80
2022-12-05T02:51:41.914Z,3.81
2022-12-05T02:52:48.060Z,3.82
2022-12-05T02:53:51.804Z,3.83
2022-12-05T02:54:56.150Z,3.84
2022-12-05T02:55:59.872Z,3.85
2022-12-05T02:57:02.864Z,3.84
2022-12-05T02:58:11.695Z,3.87
2022-12-05T02:59:19.876Z,3.90
2022-12-05T03:00:25.334Z,3.91
2022-12-05T03:01:31.668Z,3.90
2022-12-05T03:02:35.416Z,3.93
2022-12-05T03:03:38.573Z,3.93
2022-12-05T03:04:40.976Z,3.94
2022-12-05T03:05:47.705Z,3.94
2022-12-05T03:07:05.227Z,3.84
2022-12-05T03:08:13.922Z,3.79
2022-12-05T03:09:22.006Z,3.77
2022-12-05T03:10:27.627Z,3.73
2022-12-05T03:11:37.369Z,3.78
2022-12-05T03:12:44.709Z,3.75
2022-12-05T03:13:53.215Z,3.72
2022-12-05T03:15:06.923Z,3.74
2022-12-05T03:16:16.978Z,3.73
2022-12-05T03:17:25.122Z,3.72
2022-12-05T03:18:36.829Z,3.71
2022-12-05T03:19:57.555Z,3.77
2022-12-05T03:21:05.598Z,3.77
2022-12-05T03:22:18.525Z,3.78
2022-12-05T03:23:27.492Z,3.71
2022-12-05T03:24:31.051Z,3.71
2022-12-05T03:25:40.725Z,3.75
2022-12-05T03:26:51.992Z,3.77
2022-12-05T03:28:04.825Z,3.77
2022-12-05T03:29:18.856Z,3.77
2022-12-05T03:30:23.062Z,3.77
2022-12-05T03:31:45.656Z,3.75
2022-12-05T03:33:09.577Z,3.73
2022-12-05T03:34:18.893Z,3.72
2022-12-05T03:35:31.170Z,3.78
2022-12-05T03:36:41.659Z,3.83
2022-12-05T03:38:17.267Z,3.81
2022-12-05T03:39:32.325Z,3.74
2022-12-05T03:40:55.371Z,3.75
2022-12-05T03:42:01.209Z,3.78
2022-12-05T03:43:09.863Z,3.78
2022-12-05T03:44:24.694Z,3.79
2022-12-05T03:45:37.770Z,3.81
2022-12-05T03:46:46.372Z,3.81
2022-12-05T03:48:07.276Z,3.83
2022-12-05T03:49:19.819Z,3.83
2022-12-05T03:50:28.951Z,3.82
2022-12-05T03:52:15.899Z,3.80
2022-12-05T03:53:25.367Z,3.75
2022-12-05T03:54:36.642Z,3.77
2022-12-05T03:55:41.426Z,3.77
2022-12-05T03:56:48.591Z,3.79
2022-12-05T03:57:58.460Z,3.81
2022-12-05T03:59:22.784Z,3.80
2022-12-05T04:00:25.973Z,3.78
2022-12-05T04:01:31.645Z,3.75
2022-12-05T04:02:59.131Z,3.76
2022-12-05T04:04:25.145Z,3.79
2022-12-05T04:05:36.036Z,3.80
2022-12-05T04:06:42.159Z,3.79
2022-12-05T04:07:47.470Z,3.79
2022-12-05T04:09:04.738Z,3.78
2022-12-05T04:10:12.991Z,3.81
2022-12-05T04:11:20.904Z,3.78
2022-12-05T04:12:27.537Z,3.81
2022-12-05T04:13:55.543Z,3.80
2022-12-05T04:15:02.231Z,3.76
2022-12-05T04:16:31.861Z,3.76
2022-12-05T04:17:43.356Z,3.80
2022-12-05T04:18:54.690Z,3.78
2022-12-05T04:20:23.511Z,3.81
2022-12-05T04:21:39.572Z,3.79
2022-12-05T04:22:43.727Z,3.75
2022-12-05T04:24:05.953Z,3.73
2022-12-05T04:25:31.168Z,3.79
2022-12-05T04:26:34.747Z,3.84
2022-12-05T04:27:45.246Z,3.78
2022-12-05T04:28:58.302Z,3.75
2022-12-05T04:30:23.550Z,3.82
2022-12-05T04:31:32.110Z,3.82
2022-12-05T04:33:02.763Z,3.82
2022-12-05T04:34:07.894Z,3.80
2022-12-05T04:35:15.865Z,3.80
2022-12-05T04:36:32.562Z,3.84
2022-12-05T04:37:38.899Z,3.84
2022-12-05T04:38:50.498Z,3.80
2022-12-05T04:40:10.106Z,3.80
2022-12-05T04:41:29.871Z,3.75
2022-12-05T04:42:35.611Z,3.79
2022-12-05T04:43:41.157Z,3.80
2022-12-05T04:44:54.184Z,3.82
2022-12-05T04:45:58.680Z,3.82
2022-12-05T04:47:05.082Z,3.86
2022-12-05T04:48:12.707Z,3.85
2022-12-05T04:49:22.013Z,3.85
2022-12-05T04:50:27.297Z,3.88
2022-12-05T04:51:34.807Z,3.88
2022-12-05T04:52:38.428Z,3.83
2022-12-05T04:53:43.390Z,3.83
2022-12-05T04:55:05.515Z,3.84
2022-12-05T04:56:09.845Z,3.85
2022-12-05T04:57:17.893Z,3.86
2022-12-05T04:58:22.838Z,3.86
2022-12-05T04:59:25.243Z,3.89
2022-12-05T05:00:29.820Z,3.89
2022-12-05T05:01:42.348Z,3.90
2022-12-05T05:02:54.900Z,3.90
2022-12-05T05:04:10.223Z,3.91
2022-12-05T05:05:16.580Z,3.94
2022-12-05T05:06:20.525Z,3.93
2022-12-05T05:07:23.235Z,3.96
2022-12-05T05:08:31.572Z,3.95
2022-12-05T05:09:34.165Z,3.96
2022-12-05T05:10:43.596Z,3.97
2022-12-05T05:11:45.906Z,3.96
2022-12-05T05:12:48.791Z,3.97
2022-12-05T05:13:51.456Z,3.97
2022-12-05T05:14:53.795Z,3.98
2022-12-05T05:15:56.396Z,3.96
2022-12-05T05:16:59.179Z,3.96
2022-12-05T05:18:01.610Z,3.98
2022-12-05T05:19:05.565Z,3.96
2022-12-05T05:20:29.961Z,3.96
2022-12-05T05:21:33.769Z,3.98
2022-12-05T05:22:36.365Z,3.97
2022-12-05T05:23:38.843Z,3.93
2022-12-05T05:24:41.180Z,3.96
2022-12-05T05:25:43.992Z,3.98
2022-12-05T05:26:52.504Z,3.98
2022-12-05T05:27:57.742Z,3.97
2022-12-05T05:29:00.047Z,3.97
2022-12-05T05:30:02.557Z,4.01
2022-12-05T05:31:07.091Z,4.00
2022-12-05T05:32:09.382Z,4.03
2022-12-05T05:33:11.643Z,4.06
2022-12-05T05:34:16.560Z,4.06
2022-12-05T05:35:19.169Z,4.05
2022-12-05T05:36:23.526Z,4.05
2022-12-05T05:37:25.764Z,4.06
2022-12-05T05:38:28.103Z,4.06
2022-12-05T05:39:30.686Z,4.06
2022-12-05T05:40:35.981Z,4.05
2022-12-05T05:41:38.336Z,4.06
2022-12-05T05:42:48.517Z,4.07
2022-12-05T05:43:51.336Z,4.08
2022-12-05T05:44:53.496Z,4.07
2022-12-05T05:45:55.854Z,4.07
2022-12-05T05:46:58.137Z,4.05
2022-12-05T05:48:00.662Z,4.05
2022-12-05T05:49:03.586Z,4.11
2022-12-05T05:50:06.832Z,4.14
2022-12-05T05:51:11.305Z,4.12
2022-12-05T05:52:15.966Z,4.08
2022-12-05T05:53:18.200Z,4.10
2022-12-05T05:54:20.601Z,4.09
2022-12-05T05:55:23.072Z,4.08
2022-12-05T05:56:26.559Z,4.09
2022-12-05T05:57:29.520Z,4.10
2022-12-05T05:58:32.361Z,4.08
2022-12-05T05:59:35.126Z,4.06
2022-12-05T06:00:38.354Z,4.06
2022-12-05T06:01:40.841Z,4.05
2022-12-05T06:02:43.508Z,4.02
2022-12-05T06:03:46.939Z,4.04
2022-12-05T06:04:49.760Z,4.05
2022-12-05T06:06:03.223Z,4.07
2022-12-05T06:07:05.846Z,4.07
2022-12-05T06:08:08.759Z,4.11
2022-12-05T06:09:11.470Z,4.09
2022-12-05T06:10:14.033Z,4.09
2022-12-05T06:11:26.298Z,4.10
2022-12-05T06:12:29.415Z,4.10
2022-12-05T06:13:31.807Z,4.09
2022-12-05T06:14:34.416Z,4.10
2022-12-05T06:15:37.630Z,4.11
2022-12-05T06:16:40.430Z,4.11
2022-12-05T06:17:43.753Z,4.09
2022-12-05T06:18:47.053Z,4.06
2022-12-05T06:19:49.547Z,4.05
2022-12-05T06:20:57.642Z,4.04
2022-12-05T06:22:00.280Z,4.07
2022-12-05T06:23:04.043Z,4.08
2022-12-05T06:24:06.885Z,4.20
2022-12-05T06:25:09.641Z,4.17
2022-12-05T06:26:15.281Z,4.16
2022-12-05T06:27:19.894Z,4.15
2022-12-05T06:28:24.774Z,4.15
2022-12-05T06:29:31.134Z,4.14
2022-12-05T06:30:38.740Z,4.10
2022-12-05T06:31:42.225Z,4.08
2022-12-05T06:32:44.753Z,4.05
2022-12-05T06:33:47.911Z,4.04
2022-12-05T06:34:50.691Z,4.08
2022-12-05T06:36:04.689Z,4.05
2022-12-05T06:37:07.872Z,4.07
2022-12-05T06:38:10.778Z,4.04
2022-12-05T06:39:13.273Z,4.07
2022-12-05T06:40:15.938Z,4.07
2022-12-05T06:41:20.704Z,4.07
2022-12-05T06:42:23.073Z,4.08
2022-12-05T06:43:25.615Z,4.08
2022-12-05T06:44:29.302Z,4.10
2022-12-05T06:45:31.835Z,4.11
2022-12-05T06:46:34.350Z,4.11
2022-12-05T06:47:36.978Z,4.13
2022-12-05T06:48:40.996Z,4.12
2022-12-05T06:49:43.310Z,4.14
2022-12-05T06:50:52.761Z,4.16
2022-12-05T06:51:55.671Z,4.16
2022-12-05T06:52:58.166Z,4.17
2022-12-05T06:54:00.670Z,4.19
2022-12-05T06:55:03.641Z,4.19
2022-12-05T06:56:08.532Z,4.19
2022-12-05T06:57:11.199Z,4.21
2022-12-05T06:58:13.809Z,4.17
2022-12-05T06:59:16.876Z,4.17
2022-12-05T07:00:38.200Z,4.19
2022-12-05T07:01:44.104Z,4.21
2022-12-05T07:02:47.253Z,4.23
2022-12-05T07:03:49.997Z,4.25
2022-12-05T07:04:52.711Z,4.27
2022-12-05T07:05:55.080Z,4.29
2022-12-05T07:06:57.735Z,4.29
2022-12-05T07:08:00.182Z,4.30
2022-12-05T07:09:03.585Z,4.34
2022-12-05T07:10:07.013Z,4.33
2022-12-05T07:11:09.660Z,4.36
2022-12-05T07:12:17.993Z,4.40
2022-12-05T07:13:20.724Z,4.36
2022-12-05T07:15:48.287Z,4.39
2022-12-05T07:16:51.979Z,4.41
2022-12-05T07:17:55.474Z,4.41
2022-12-05T07:18:59.569Z,4.43
2022-12-05T07:20:02.178Z,4.42
2022-12-05T07:21:13.107Z,4.39
2022-12-05T07:22:17.357Z,4.42
2022-12-05T07:23:19.839Z,4.42
2022-12-05T07:24:22.312Z,4.44
2022-12-05T07:25:28.042Z,4.46
2022-12-05T07:26:30.525Z,4.47
2022-12-05T07:27:34.286Z,4.45
2022-12-05T07:28:37.245Z,4.51
2022-12-05T07:29:39.812Z,4.55
2022-12-05T07:30:42.277Z,4.55
2022-12-05T07:31:45.112Z,4.53
2022-12-05T07:32:47.893Z,4.57
2022-12-05T07:33:50.939Z,4.58
2022-12-05T07:34:55.559Z,4.63
2022-12-05T07:36:09.478Z,4.63
2022-12-05T07:37:13.964Z,4.65
2022-12-05T07:38:16.422Z,4.64
2022-12-05T07:39:18.993Z,4.64
2022-12-05T07:40:22.389Z,4.69
2022-12-05T07:41:26.902Z,4.66
2022-12-05T07:42:29.481Z,4.66
2022-12-05T07:43:32.013Z,4.64
2022-12-05T07:44:35.215Z,4.64
2022-12-05T07:45:37.814Z,4.66
2022-12-05T07:46:43.831Z,4.66
2022-12-05T07:47:47.265Z,4.68
2022-12-05T07:48:51.067Z,4.68
2022-12-05T07:49:53.677Z,4.67
2022-12-05T07:51:04.467Z,4.70
2022-12-05T07:52:10.181Z,4.64
2022-12-05T07:53:13.158Z,4.64
2022-12-05T07:54:15.529Z,4.65
2022-12-05T07:55:18.228Z,4.68
2022-12-05T07:56:21.863Z,4.67
2022-12-05T07:57:24.553Z,4.68
2022-12-05T07:58:29.667Z,4.70
2022-12-05T07:59:32.614Z,4.72
2022-12-05T08:00:35.165Z,4.75
2022-12-05T08:01:38.250Z,4.77
2022-12-05T08:02:41.151Z,4.80
2022-12-05T08:03:45.035Z,4.77
2022-12-05T08:04:47.854Z,4.77
2022-12-05T08:05:50.908Z,4.81
2022-12-05T08:06:53.964Z,4.83
2022-12-05T08:07:58.640Z,4.83
2022-12-05T08:09:01.351Z,4.85
2022-12-05T08:10:05.235Z,4.83
2022-12-05T08:11:16.149Z,4.83
2022-12-05T08:12:18.529Z,4.87
2022-12-05T08:13:21.905Z,4.90
2022-12-05T08:14:24.402Z,4.93
2022-12-05T08:15:26.889Z,4.97
2022-12-05T08:16:31.598Z,4.97
2022-12-05T08:17:34.132Z,4.92
2022-12-05T08:18:36.842Z,4.84
2022-12-05T08:19:39.745Z,4.87
2022-12-05T08:20:42.046Z,4.87
2022-12-05T08:21:44.276Z,4.90
2022-12-05T08:22:46.553Z,4.92
2022-12-05T08:23:48.982Z,4.93
2022-12-05T08:24:56.116Z,4.98
2022-12-05T08:26:07.652Z,5.01
2022-12-05T08:27:10.768Z,5.07
2022-12-05T08:28:13.641Z,5.09
2022-12-05T08:29:16.536Z,5.10
2022-12-05T08:30:19.034Z,5.09
2022-12-05T08:31:24.536Z,5.16
2022-12-05T08:32:27.814Z,5.15
2022-12-05T08:33:30.184Z,5.14
2022-12-05T08:34:32.655Z,5.05
2022-12-05T08:35:37.755Z,5.00
2022-12-05T08:36:41.432Z,4.97
2022-12-05T08:37:44.063Z,4.97
2022-12-05T08:38:48.287Z,5.04
2022-12-05T08:39:50.890Z,5.05
2022-12-05T08:40:53.786Z,5.02
2022-12-05T08:41:56.159Z,5.08
2022-12-05T08:42:58.543Z,5.03
2022-12-05T08:44:03.702Z,5.08
2022-12-05T08:45:06.999Z,5.10
2022-12-05T08:46:10.268Z,5.07
2022-12-05T08:47:12.845Z,5.08
2022-12-05T08:48:15.610Z,5.09
2022-12-05T08:49:18.565Z,5.07
2022-12-05T08:50:21.236Z,5.06
2022-12-05T08:51:24.126Z,5.08
2022-12-05T08:52:27.175Z,5.07
2022-12-05T08:53:29.591Z,5.13
2022-12-05T08:54:32.165Z,5.15
2022-12-05T08:55:35.415Z,5.14
2022-12-05T08:56:38.848Z,5.14
2022-12-05T08:57:43.747Z,5.17
2022-12-05T08:58:46.241Z,5.18
2022-12-05T08:59:48.766Z,5.16
2022-12-05T09:00:51.233Z,5.15
2022-12-05T09:01:53.950Z,5.18
2022-12-05T09:02:56.720Z,5.20
2022-12-05T09:04:00.889Z,5.20
2022-12-05T09:05:19.433Z,5.20
2022-12-05T09:06:27.372Z,5.25
2022-12-05T09:07:31.248Z,5.30
2022-12-05T09:08:38.002Z,5.26
2022-12-05T09:09:40.529Z,5.27
2022-12-05T09:10:44.306Z,5.33
2022-12-05T09:11:49.186Z,5.34
2022-12-05T09:12:52.322Z,5.26
2022-12-05T09:13:56.609Z,5.30
2022-12-05T09:14:59.261Z,5.30
2022-12-05T09:16:13.337Z,5.26
2022-12-05T09:17:15.661Z,5.25
2022-12-05T09:18:18.081Z,5.26
2022-12-05T09:19:21.763Z,5.28
2022-12-05T09:20:24.171Z,5.38
2022-12-05T09:21:30.055Z,5.34
2022-12-05T09:22:33.894Z,5.38
2022-12-05T09:23:36.364Z,5.38
2022-12-05T09:24:38.985Z,5.37
2022-12-05T09:25:42.604Z,5.40
2022-12-05T09:26:45.234Z,5.38
2022-12-05T09:27:47.543Z,5.38
2022-12-05T09:28:54.192Z,5.39
2022-12-05T09:29:56.662Z,5.36
2022-12-05T09:31:01.931Z,5.32
2022-12-05T09:32:04.671Z,5.32
2022-12-05T09:33:06.943Z,5.37
2022-12-05T09:34:09.701Z,5.36
2022-12-05T09:35:12.042Z,5.39
2022-12-05T09:36:23.438Z,5.34
2022-12-05T09:37:41.172Z,5.36
2022-12-05T09:38:45.963Z,5.36
2022-12-05T09:39:48.432Z,5.35
2022-12-05T09:40:59.054Z,5.40
2022-12-05T09:42:20.077Z,5.43
2022-12-05T09:43:45.559Z,5.43
2022-12-05T09:44:49.211Z,5.47
2022-12-05T09:46:02.822Z,5.43
2022-12-05T09:47:17.600Z,5.47
2022-12-05T09:48:23.391Z,5.43
2022-12-05T09:49:27.283Z,5.47
2022-12-05T09:51:03.856Z,5.41
2022-12-05T09:52:07.009Z,5.41
2022-12-05T09:53:21.351Z,5.49
2022-12-05T09:54:24.793Z,5.46
2022-12-05T09:55:35.703Z,5.36
2022-12-05T09:56:40.313Z,5.31
2022-12-05T09:57:51.972Z,5.44
2022-12-05T09:58:55.978Z,5.45
2022-12-05T10:00:00.963Z,5.39
2022-12-05T10:01:21.628Z,5.44
2022-12-05T10:02:44.523Z,5.39
2022-12-05T10:03:52.518Z,5.35
2022-12-05T10:05:02.699Z,5.38
2022-12-05T10:06:29.374Z,5.43
2022-12-05T10:07:38.117Z,5.37
2022-12-05T10:09:29.133Z,5.41
2022-12-05T10:11:18.148Z,5.36
2022-12-05T10:12:39.547Z,5.36
2022-12-05T10:14:03.481Z,5.43
2022-12-05T10:15:57.281Z,5.44
2022-12-05T10:17:25.917Z,5.45
2022-12-05T10:18:38.694Z,5.49
2022-12-05T10:19:48.291Z,5.44
2022-12-05T10:21:13.661Z,5.42
2022-12-05T10:22:48.036Z,5.41
2022-12-05T10:23:58.342Z,5.43
2022-12-05T10:25:04.118Z,5.44
2022-12-05T10:26:11.877Z,5.42
2022-12-05T10:27:21.857Z,5.44
2022-12-05T10:28:40.305Z,5.51
2022-12-05T10:29:58.556Z,5.50
2022-12-05T10:31:06.173Z,5.49
2022-12-05T10:32:17.836Z,5.52
2022-12-05T10:33:22.671Z,5.55
2022-12-05T10:34:38.920Z,5.51
2022-12-05T10:35:42.215Z,5.51
2022-12-05T10:37:11.690Z,5.48
2022-12-05T10:38:20.193Z,5.49
2022-12-05T10:39:23.446Z,5.51
2022-12-05T10:40:38.725Z,5.55
2022-12-05T10:41:41.398Z,5.49
2022-12-05T10:42:45.227Z,5.58
2022-12-05T10:43:49.359Z,5.57
2022-12-05T10:44:58.083Z,5.58
2022-12-05T10:46:02.479Z,5.58
2022-12-05T10:47:05.154Z,5.59
2022-12-05T10:48:11.811Z,5.59
2022-12-05T10:49:14.592Z,5.60
2022-12-05T10:50:24.617Z,5.63
2022-12-05T10:51:32.621Z,5.58
2022-12-05T10:52:39.563Z,5.62
2022-12-05T10:53:51.023Z,5.60
2022-12-05T10:55:00.617Z,5.59
2022-12-05T10:56:29.707Z,5.63
2022-12-05T10:57:30.367Z,5.63
2022-12-05T10:58:32.899Z,5.61
2022-12-05T10:59:48.229Z,5.64
2022-12-05T11:00:55.333Z,5.65
2022-12-05T11:01:59.916Z,5.59
2022-12-05T11:03:05.882Z,5.69
2022-12-05T11:04:19.828Z,5.64
2022-12-05T11:05:30.596Z,5.64
2022-12-05T11:06:33.206Z,5.65
2022-12-05T11:07:49.855Z,5.67
2022-12-05T11:09:04.372Z,5.66
2022-12-05T11:10:26.412Z,5.68
2022-12-05T11:11:33.533Z,5.70
2022-12-05T11:12:35.874Z,5.71
2022-12-05T11:13:38.486Z,5.74
2022-12-05T11:14:40.916Z,5.72
2022-12-05T11:15:52.257Z,5.71
2022-12-05T11:16:59.503Z,5.71
2022-12-05T11:18:26.164Z,5.73
2022-12-05T11:19:36.859Z,5.77
2022-12-05T11:20:40.445Z,5.74
2022-12-05T11:21:43.900Z,5.74
2022-12-05T11:22:49.557Z,5.77
2022-12-05T11:23:55.061Z,5.73
2022-12-05T11:24:58.775Z,5.86
2022-12-05T11:26:01.283Z,5.82
2022-12-05T11:27:17.118Z,5.84
2022-12-05T11:28:22.404Z,5.83
2022-12-05T11:29:36.978Z,5.83
2022-12-05T11:30:39.214Z,5.87
2022-12-05T11:31:52.307Z,5.82
2022-12-05T11:33:21.050Z,5.89
2022-12-05T11:34:27.609Z,5.85
2022-12-05T11:35:30.027Z,5.86
2022-12-05T11:36:46.789Z,5.90
2022-12-05T11:37:52.213Z,5.87
2022-12-05T11:38:54.591Z,5.91
2022-12-05T11:39:57.151Z,5.84
2022-12-05T11:41:11.470Z,5.88
2022-12-05T11:42:23.613Z,5.86
2022-12-05T11:43:25.779Z,5.86
2022-12-05T11:44:30.934Z,5.88
2022-12-05T11:45:54.648Z,5.97
2022-12-05T11:47:15.516Z,5.89
2022-12-05T11:48:49.700Z,5.93
2022-12-05T11:50:25.204Z,5.94
2022-12-05T11:51:36.964Z,6.00
2022-12-05T11:53:19.374Z,6.04
2022-12-05T11:55:04.839Z,6.00
2022-12-05T11:56:26.792Z,6.05
2022-12-05T11:57:41.043Z,6.12
2022-12-05T11:59:09.679Z,6.02
2022-12-05T12:00:19.029Z,6.05
2022-12-05T12:01:38.261Z,6.04
2022-12-05T12:02:46.978Z,5.99
2022-12-05T12:03:59.782Z,5.99
2022-12-05T12:05:35.732Z,5.95
2022-12-05T12:07:06.916Z,6.07
2022-12-05T12:08:17.576Z,6.00
2022-12-05T12:09:35.249Z,6.08
2022-12-05T12:10:59.870Z,6.16
2022-12-05T12:12:17.643Z,6.09
2022-12-05T12:13:23.507Z,6.12
2022-12-05T12:14:34.837Z,6.18
2022-12-05T12:16:09.164Z,6.16
2022-12-05T12:17:31.557Z,6.20
2022-12-05T12:19:06.923Z,6.21
2022-12-05T12:20:18.684Z,6.21
2022-12-05T12:21:44.747Z,6.22
2022-12-05T12:23:11.662Z,6.25
2022-12-05T12:24:42.566Z,6.31
2022-12-05T12:25:58.557Z,6.29
2022-12-05T12:27:16.964Z,6.30
2022-12-05T12:28:25.657Z,6.23
2022-12-05T12:30:01.262Z,6.25
2022-12-05T12:31:06.380Z,6.26
2022-12-05T12:32:26.433Z,6.28
2022-12-05T12:33:49.155Z,6.27
2022-12-05T12:35:17.962Z,6.30
2022-12-05T12:36:46.804Z,6.21
2022-12-05T12:37:52.602Z,6.18
2022-12-05T12:38:55.641Z,6.21
2022-12-05T12:40:13.159Z,6.21
2022-12-05T12:41:36.410Z,6.21
2022-12-05T12:42:56.948Z,6.25
2022-12-05T12:44:37.999Z,6.19
2022-12-05T12:45:52.517Z,6.18
2022-12-05T12:46:59.734Z,6.17
2022-12-05T12:48:08.677Z,6.17
2022-12-05T12:49:18.778Z,6.15
2022-12-05T12:50:28.653Z,6.19
2022-12-05T12:51:33.684Z,6.17
2022-12-05T12:52:56.394Z,6.21
2022-12-05T12:54:01.606Z,6.23
2022-12-05T12:55:20.098Z,6.22
2022-12-05T12:57:01.491Z,6.28
2022-12-05T12:58:11.760Z,6.31
2022-12-05T12:59:38.364Z,6.35
2022-12-05T13:01:16.627Z,6.29
2022-12-05T13:02:43.821Z,6.37
2022-12-05T13:04:02.868Z,6.45
2022-12-05T13:05:23.941Z,6.44
2022-12-05T13:06:32.755Z,6.46
2022-12-05T13:07:41.553Z,6.50
2022-12-05T13:08:54.388Z,6.51
2022-12-05T13:10:20.550Z,6.55
2022-12-05T13:11:24.103Z,6.50
2022-12-05T13:12:33.918Z,6.55
2022-12-05T13:13:43.163Z,6.59
2022-12-05T13:14:52.944Z,6.54
2022-12-05T13:15:59.885Z,6.56
2022-12-05T13:17:03.287Z,6.53
2022-12-05T13:18:11.773Z,6.56
2022-12-05T13:19:37.499Z,6.50
2022-12-05T13:20:40.937Z,6.53
2022-12-05T13:21:44.119Z,6.47
2022-12-05T13:22:48.474Z,6.42
2022-12-05T13:23:56.500Z,6.38
2022-12-05T13:25:00.281Z,6.40
2022-12-05T13:26:09.216Z,6.49
2022-12-05T13:27:24.378Z,6.50
2022-12-05T13:28:42.183Z,6.47
2022-12-05T13:30:06.037Z,6.41
2022-12-05T13:31:14.579Z,6.44
2022-12-05T13:32:25.741Z,6.44
2022-12-05T13:33:34.840Z,6.46
2022-12-05T13:34:46.394Z,6.45
2022-12-05T13:36:07.294Z,6.39
2022-12-05T13:37:31.635Z,6.37
2022-12-05T13:38:56.425Z,6.43
2022-12-05T13:40:17.784Z,6.43
2022-12-05T13:41:39.208Z,6.38
2022-12-05T13:42:43.760Z,6.42
2022-12-05T13:44:05.901Z,6.41
2022-12-05T13:45:12.249Z,6.41
2022-12-05T13:46:28.890Z,6.37
2022-12-05T13:47:31.726Z,6.41
2022-12-05T13:48:38.609Z,6.33
2022-12-05T13:49:50.841Z,6.24
2022-12-05T13:51:22.910Z,6.31
2022-12-05T13:52:29.707Z,6.26
2022-12-05T13:53:41.513Z,6.24
2022-12-05T13:54:46.704Z,6.26
2022-12-05T13:56:02.172Z,6.26
2022-12-05T13:57:05.464Z,6.18
2022-12-05T13:58:17.295Z,6.29
2022-12-05T13:59:57.840Z,6.16
2022-12-05T14:01:31.070Z,6.15
2022-12-05T14:02:46.391Z,6.12
2022-12-05T14:03:48.974Z,6.14
2022-12-05T14:04:51.758Z,6.06
2022-12-05T14:05:55.380Z,6.12
2022-12-05T14:06:59.081Z,6.10
2022-12-05T14:08:30.929Z,6.04
2022-12-05T14:09:51.201Z,6.07
2022-12-05T14:10:53.586Z,6.02
2022-12-05T14:12:11.393Z,6.05
2022-12-05T14:13:16.567Z,6.01
2022-12-05T14:14:56.094Z,5.92
2022-12-05T14:16:24.302Z,5.97
2022-12-05T14:17:29.653Z,5.92
2022-12-05T14:18:55.275Z,5.89
2022-12-05T14:20:16.184Z,5.83
2022-12-05T14:21:28.145Z,5.84
2022-12-05T14:22:57.553Z,5.80
2022-12-05T14:24:06.086Z,5.84
2022-12-05T14:25:31.301Z,5.81
2022-12-05T14:26:39.842Z,5.78
2022-12-05T14:28:02.465Z,5.78
2022-12-05T14:29:32.106Z,5.76
2022-12-05T14:30:55.726Z,5.74
2022-12-05T14:32:18.535Z,5.72
2022-12-05T14:33:23.408Z,5.71
2022-12-05T14:34:31.901Z,5.70
2022-12-05T14:35:49.318Z,5.71
2022-12-05T14:36:54.718Z,5.72
2022-12-05T14:38:02.871Z,5.73
2022-12-05T14:39:31.982Z,5.73
2022-12-05T14:40:41.043Z,5.71
2022-12-05T14:41:45.126Z,5.74
2022-12-05T14:43:14.565Z,5.75
2022-12-05T14:44:19.795Z,5.73
2022-12-05T14:45:35.793Z,5.69
2022-12-05T14:46:44.660Z,5.70
2022-12-05T14:48:05.695Z,5.76
2022-12-05T14:49:38.059Z,5.67
2022-12-05T14:50:45.617Z,5.65
2022-12-05T14:51:57.627Z,5.65
2022-12-05T14:53:20.663Z,5.64
2022-12-05T14:54:23.684Z,5.67
2022-12-05T14:55:27.148Z,5.66
2022-12-05T14:56:30.736Z,5.64
2022-12-05T14:57:35.516Z,5.58
2022-12-05T14:58:42.079Z,5.59
2022-12-05T14:59:56.325Z,5.56
2022-12-05T15:01:07.698Z,5.64
2022-12-05T15:02:20.282Z,5.63
2022-12-05T15:03:29.836Z,5.59
2022-12-05T15:04:50.963Z,5.60
2022-12-05T15:05:54.386Z,5.59
2022-12-05T15:07:01.090Z,5.55
2022-12-05T15:08:04.824Z,5.57
2022-12-05T15:09:35.890Z,5.60
2022-12-05T15:10:43.401Z,5.66
2022-12-05T15:11:46.214Z,5.56
2022-12-05T15:12:52.479Z,5.55
2022-12-05T15:14:09.833Z,5.60
2022-12-05T15:15:20.409Z,5.62
2022-12-05T15:16:24.009Z,5.60
2022-12-05T15:17:30.673Z,5.61
2022-12-05T15:18:40.475Z,5.59
2022-12-05T15:19:51.375Z,5.57
2022-12-05T15:20:56.427Z,5.60
2022-12-05T15:22:02.571Z,5.58